createdAt,value
2022-11-02T00:01:22.447Z,4.50
2022-11-02T00:03:51.663Z,4.47
2022-11-02T00:06:19.807Z,4.45
2022-11-02T00:08:52.647Z,4.93
2022-11-02T00:11:21.413Z,4.45
2022-11-02T00:13:50.236Z,4.32
2022-11-02T00:16:24.628Z,4.55
2022-11-02T00:19:00.686Z,4.75
2022-11-02T00:21:29.846Z,4.18
2022-11-02T00:23:59.774Z,4.35
2022-11-02T00:28:59.869Z,3.88
2022-11-02T00:31:27.641Z,4.88
2022-11-02T00:33:56.856Z,6.18
2022-11-02T00:36:28.455Z,4.20
2022-11-02T00:38:58.716Z,4.18
2022-11-02T00:41:30.422Z,4.47
2022-11-02T00:44:00.401Z,4.30
2022-11-02T00:46:28.963Z,5.47
2022-11-02T00:49:00.701Z,4.47
2022-11-02T00:51:30.389Z,3.93
2022-11-02T00:54:01.822Z,4.00
2022-11-02T00:56:29.454Z,4.18
2022-11-02T00:59:03.151Z,4.68
2022-11-02T01:01:33.675Z,4.68
2022-11-02T01:04:01.855Z,4.93
2022-11-02T01:06:39.272Z,4.13
2022-11-02T01:09:07.456Z,5.47
2022-11-02T01:11:35.404Z,4.20
2022-11-02T01:14:03.067Z,5.30
2022-11-02T01:16:36.384Z,4.30
2022-11-02T01:19:03.926Z,4.50
2022-11-02T01:21:39.353Z,4.30
2022-11-02T01:24:08.176Z,4.80
2022-11-02T01:26:36.853Z,4.97
2022-11-02T01:29:05.061Z,5.18
2022-11-02T01:31:32.687Z,5.43
2022-11-02T01:34:03.234Z,4.68
2022-11-02T01:36:32.645Z,4.57
2022-11-02T01:39:00.442Z,4.70
2022-11-02T01:41:33.919Z,4.18
2022-11-02T01:44:05.697Z,4.65
2022-11-02T01:46:46.829Z,4.93
2022-11-02T01:49:20.319Z,4.70
2022-11-02T01:52:31.170Z,4.70
2022-11-02T01:55:12.169Z,4.60
2022-11-02T01:57:44.286Z,4.22
2022-11-02T02:00:15.472Z,5.20
2022-11-02T02:03:18.422Z,4.65
2022-11-02T02:05:58.079Z,4.78
2022-11-02T02:08:29.473Z,5.35
2022-11-02T02:11:00.737Z,4.30
2022-11-02T02:13:30.183Z,4.05
2022-11-02T02:16:16.313Z,4.35
2022-11-02T02:18:53.738Z,3.75
2022-11-02T02:21:50.750Z,4.30
2022-11-02T02:24:38.580Z,4.43
2022-11-02T02:27:24.367Z,5.57
2022-11-02T02:30:10.998Z,4.03
2022-11-02T02:32:57.150Z,4.55
2022-11-02T02:35:35.909Z,4.35
2022-11-02T02:38:18.499Z,4.63
2022-11-02T02:41:00.527Z,4.85
2022-11-02T02:43:43.057Z,4.40
2022-11-02T02:46:27.581Z,4.18
2022-11-02T02:48:57.915Z,5.07
2022-11-02T02:51:32.235Z,4.07
2022-11-02T02:54:10.947Z,4.20
2022-11-02T02:56:54.057Z,4.38
2022-11-02T02:59:28.634Z,4.20
2022-11-02T03:01:59.949Z,4.18
2022-11-02T03:04:28.103Z,4.13
2022-11-02T03:07:01.015Z,4.25
2022-11-02T03:10:05.238Z,4.60
2022-11-02T03:12:46.303Z,4.18
2022-11-02T03:15:25.827Z,5.38
2022-11-02T03:18:15.475Z,5.32
2022-11-02T03:21:06.882Z,4.82
2022-11-02T03:23:44.088Z,4.40
2022-11-02T03:26:27.547Z,4.25
2022-11-02T03:29:19.396Z,4.15
2022-11-02T03:31:55.666Z,4.50
2022-11-02T03:34:39.165Z,3.95
2022-11-02T03:37:25.747Z,4.68
2022-11-02T03:40:02.991Z,3.92
2022-11-02T03:42:36.997Z,3.65
2022-11-02T03:45:15.196Z,4.57
2022-11-02T03:48:07.374Z,4.35
2022-11-02T03:50:39.367Z,4.15
2022-11-02T03:53:17.987Z,5.47
2022-11-02T03:55:59.704Z,5.13
2022-11-02T03:58:28.053Z,5.22
2022-11-02T04:01:03.092Z,5.63
2022-11-02T04:03:34.222Z,5.20
2022-11-02T04:06:02.283Z,4.57
2022-11-02T04:08:37.503Z,3.55
2022-11-02T04:11:27.851Z,4.10
2022-11-02T04:14:18.233Z,3.88
2022-11-02T04:16:49.532Z,3.45
2022-11-02T04:19:30.370Z,4.05
2022-11-02T04:22:22.728Z,4.43
2022-11-02T04:25:14.350Z,3.60
2022-11-02T04:27:47.437Z,3.55
2022-11-02T04:30:18.928Z,4.15
2022-11-02T04:33:10.112Z,3.72
2022-11-02T04:35:53.645Z,3.25
2022-11-02T04:38:41.209Z,3.58
2022-11-02T04:41:39.177Z,4.10
2022-11-02T04:44:17.751Z,4.07
2022-11-02T04:46:56.089Z,3.90
2022-11-02T04:49:27.662Z,3.75
2022-11-02T04:51:55.689Z,3.70
2022-11-02T04:54:23.544Z,3.90
2022-11-02T04:56:59.105Z,3.75
2022-11-02T04:59:29.805Z,4.07
2022-11-02T05:01:58.943Z,3.63
2022-11-02T05:04:27.301Z,3.85
2022-11-02T05:07:01.283Z,4.28
2022-11-02T05:09:34.271Z,4.03
2022-11-02T05:12:02.353Z,3.85
2022-11-02T05:14:31.212Z,4.88
2022-11-02T05:16:59.628Z,4.25
2022-11-02T05:19:27.763Z,3.50
2022-11-02T05:21:56.151Z,3.60
2022-11-02T05:24:25.992Z,3.90
2022-11-02T05:26:54.114Z,4.00
2022-11-02T05:29:24.975Z,4.20
2022-11-02T05:31:53.854Z,4.05
2022-11-02T05:34:24.216Z,3.97
2022-11-02T05:36:52.897Z,3.85
2022-11-02T05:39:35.605Z,4.28
2022-11-02T05:42:14.410Z,3.70
2022-11-02T05:44:42.524Z,4.30
2022-11-02T05:47:13.671Z,4.10
2022-11-02T05:49:41.264Z,3.95
2022-11-02T05:52:09.815Z,4.32
2022-11-02T05:54:41.341Z,4.38
2022-11-02T05:57:11.648Z,4.22
2022-11-02T05:59:40.300Z,4.15
2022-11-02T06:02:08.322Z,3.95
2022-11-02T06:04:36.758Z,4.22
2022-11-02T06:07:14.757Z,4.20
2022-11-02T06:09:53.570Z,4.53
2022-11-02T06:12:31.265Z,4.45
2022-11-02T06:15:01.200Z,5.00
2022-11-02T06:17:29.197Z,4.15
2022-11-02T06:19:57.326Z,3.97
2022-11-02T06:22:25.975Z,4.60
2022-11-02T06:24:55.775Z,4.72
2022-11-02T06:27:25.070Z,5.13
2022-11-02T06:29:56.015Z,4.13
2022-11-02T06:32:26.238Z,4.32
2022-11-02T06:34:54.098Z,4.63
2022-11-02T06:37:24.329Z,4.70
2022-11-02T06:39:55.895Z,4.65
2022-11-02T06:42:36.911Z,5.55
2022-11-02T06:45:13.752Z,5.05
2022-11-02T06:47:42.198Z,4.40
2022-11-02T06:50:10.482Z,4.97
2022-11-02T06:52:48.556Z,5.35
2022-11-02T06:55:18.327Z,5.63
2022-11-02T06:57:46.062Z,5.40
2022-11-02T07:00:22.786Z,6.07
2022-11-02T07:03:09.829Z,5.55
2022-11-02T07:05:40.866Z,6.05
2022-11-02T07:08:08.457Z,5.88
2022-11-02T07:10:40.499Z,5.93
2022-11-02T07:13:08.430Z,5.90
2022-11-02T07:15:40.118Z,5.93
2022-11-02T07:18:08.946Z,5.63
2022-11-02T07:20:36.740Z,5.32
2022-11-02T07:23:05.747Z,6.53
2022-11-02T07:25:37.143Z,5.90
2022-11-02T07:28:06.394Z,5.82
2022-11-02T07:30:35.222Z,5.65
2022-11-02T07:33:03.709Z,5.28
2022-11-02T07:35:31.414Z,6.63
2022-11-02T07:38:04.579Z,5.93
2022-11-02T07:40:34.187Z,5.80
2022-11-02T07:43:05.996Z,6.18
2022-11-02T07:45:41.779Z,5.57
2022-11-02T07:48:09.077Z,5.97
2022-11-02T07:50:36.256Z,6.13
2022-11-02T07:53:04.261Z,6.55
2022-11-02T07:55:32.842Z,6.13
2022-11-02T07:58:03.309Z,6.88
2022-11-02T08:00:33.898Z,6.97
2022-11-02T08:03:03.216Z,7.10
2022-11-02T08:05:32.877Z,7.20
2022-11-02T08:08:16.578Z,6.40
2022-11-02T08:10:56.542Z,7.03
2022-11-02T08:13:26.275Z,6.13
2022-11-02T08:15:57.379Z,6.93
2022-11-02T08:18:27.810Z,6.97
2022-11-02T08:20:57.849Z,6.45
2022-11-02T08:23:26.771Z,6.03
2022-11-02T08:26:02.442Z,6.85
2022-11-02T08:28:40.817Z,6.70
2022-11-02T08:31:18.042Z,5.80
2022-11-02T08:33:46.365Z,7.05
2022-11-02T08:36:14.435Z,5.65
2022-11-02T08:38:44.649Z,6.47
2022-11-02T08:41:12.045Z,6.03
2022-11-02T08:43:41.533Z,5.78
2022-11-02T08:46:14.790Z,6.68
2022-11-02T08:48:46.716Z,5.93
2022-11-02T08:51:14.046Z,6.10
2022-11-02T08:53:50.403Z,5.28
2022-11-02T08:56:41.411Z,5.45
2022-11-02T08:59:09.177Z,4.78
2022-11-02T09:01:39.967Z,4.82
2022-11-02T09:04:11.077Z,4.63
2022-11-02T09:06:38.261Z,4.32
2022-11-02T09:09:11.372Z,3.95
2022-11-02T09:11:41.266Z,3.15
2022-11-02T09:14:08.667Z,3.67
2022-11-02T09:16:41.263Z,3.30
2022-11-02T09:19:12.123Z,3.85
2022-11-02T09:21:41.149Z,3.03
2022-11-02T09:24:09.062Z,3.72
2022-11-02T09:26:36.404Z,3.13
2022-11-02T09:29:03.744Z,2.30
2022-11-02T09:31:31.124Z,3.63
2022-11-02T09:34:02.765Z,2.63
2022-11-02T09:36:31.731Z,2.40
2022-11-02T09:39:01.914Z,2.10
2022-11-02T09:41:33.023Z,3.17
2022-11-02T09:44:03.967Z,2.00
2022-11-02T09:46:40.746Z,2.20
2022-11-02T09:49:17.318Z,1.90
2022-11-02T09:51:50.419Z,2.40
2022-11-02T09:54:34.726Z,2.22
2022-11-02T09:57:09.694Z,1.70
2022-11-02T09:59:37.867Z,1.77
2022-11-02T10:02:26.055Z,1.88
2022-11-02T10:05:28.283Z,1.90
2022-11-02T10:08:04.832Z,1.60
2022-11-02T10:10:39.817Z,1.70
2022-11-02T10:13:22.599Z,1.50
2022-11-02T10:15:56.486Z,1.98
2022-11-02T10:18:32.690Z,2.13
2022-11-02T10:21:05.716Z,1.30
2022-11-02T10:23:40.584Z,1.38
2022-11-02T10:26:16.508Z,1.67
2022-11-02T10:28:53.916Z,3.83
2022-11-02T10:31:29.592Z,1.55
2022-11-02T10:34:13.015Z,1.98
2022-11-02T10:37:10.706Z,1.25
2022-11-02T10:39:56.355Z,1.25
2022-11-02T10:43:01.312Z,1.35
2022-11-02T10:45:57.032Z,1.65
2022-11-02T10:48:37.782Z,1.38
2022-11-02T10:51:16.098Z,2.40
2022-11-02T10:53:48.199Z,1.52
2022-11-02T10:56:32.293Z,1.80
2022-11-02T10:58:59.575Z,1.30
2022-11-02T11:01:28.986Z,1.15
2022-11-02T11:04:22.475Z,2.78
2022-11-02T11:06:52.558Z,1.70
2022-11-02T11:09:49.517Z,2.20
2022-11-02T11:12:46.764Z,1.25
2022-11-02T11:15:49.936Z,2.55
2022-11-02T11:21:13.011Z,1.58
2022-11-02T11:23:40.339Z,1.98
2022-11-02T11:26:27.838Z,2.20
2022-11-02T11:28:59.456Z,1.95
2022-11-02T11:31:26.869Z,1.58
2022-11-02T11:33:58.800Z,1.90
2022-11-02T11:36:35.967Z,1.48
2022-11-02T11:39:07.472Z,1.33
2022-11-02T11:41:39.487Z,1.65
2022-11-02T11:44:14.677Z,1.92
2022-11-02T11:46:47.244Z,1.75
2022-11-02T11:50:07.138Z,1.90
2022-11-02T11:52:32.590Z,1.45
2022-11-02T11:55:41.488Z,0.95
2022-11-02T11:58:31.430Z,1.42
2022-11-02T12:01:12.235Z,1.38
2022-11-02T12:04:03.792Z,1.27
2022-11-02T12:06:55.840Z,1.50
2022-11-02T12:09:32.014Z,1.45
2022-11-02T12:12:14.376Z,1.60
2022-11-02T12:15:01.394Z,1.23
2022-11-02T12:17:50.762Z,2.28
2022-11-02T12:20:46.253Z,1.40
2022-11-02T12:23:30.962Z,1.20
2022-11-02T12:26:23.359Z,1.48
2022-11-02T12:28:56.552Z,1.50
2022-11-02T12:31:29.791Z,1.30
2022-11-02T12:34:52.866Z,1.92
2022-11-02T12:37:40.241Z,2.10
2022-11-02T12:40:31.030Z,1.65
2022-11-02T12:43:36.487Z,1.17
2022-11-02T12:46:25.578Z,2.33
2022-11-02T12:49:36.649Z,1.00
2022-11-02T12:52:19.979Z,1.23
2022-11-02T12:57:38.491Z,1.20
2022-11-02T13:00:19.901Z,1.30
2022-11-02T13:03:39.687Z,2.13
2022-11-02T13:09:50.394Z,1.45
2022-11-02T13:12:37.411Z,1.40
2022-11-02T13:15:15.850Z,1.02
2022-11-02T13:18:09.178Z,1.70
2022-11-02T13:23:42.699Z,1.60
2022-11-02T13:26:39.851Z,1.25
2022-11-02T13:29:32.192Z,1.65
2022-11-02T13:32:33.620Z,2.13
2022-11-02T13:35:28.952Z,2.05
2022-11-02T13:38:12.237Z,1.60
2022-11-02T13:44:14.125Z,1.30
2022-11-02T13:47:22.595Z,1.15
2022-11-02T13:49:57.496Z,1.73
2022-11-02T13:52:54.756Z,1.55
2022-11-02T13:55:53.130Z,1.70
2022-11-02T13:58:56.341Z,1.52
2022-11-02T14:01:31.974Z,1.50
2022-11-02T14:04:08.791Z,1.15
2022-11-02T14:10:29.743Z,1.90
2022-11-02T14:13:20.613Z,4.22
2022-11-02T14:15:53.544Z,2.25
2022-11-02T14:18:34.992Z,1.95
2022-11-02T14:21:44.953Z,1.65
2022-11-02T14:24:52.201Z,1.95
2022-11-02T14:27:40.073Z,2.13
2022-11-02T14:30:49.821Z,2.28
2022-11-02T14:34:13.978Z,2.40
2022-11-02T14:37:14.802Z,1.85
2022-11-02T14:40:05.968Z,1.60
2022-11-02T14:43:05.070Z,1.58
2022-11-02T14:45:51.183Z,1.40
2022-11-02T14:48:49.184Z,2.05
2022-11-02T14:51:34.219Z,1.58
2022-11-02T14:57:44.633Z,1.30
2022-11-02T15:00:49.286Z,1.33
2022-11-02T15:03:45.797Z,1.67
2022-11-02T15:06:28.894Z,0.85
2022-11-02T15:09:07.285Z,1.05
2022-11-02T15:12:00.609Z,1.50
2022-11-02T15:14:36.379Z,1.05
2022-11-02T15:17:32.699Z,0.98
2022-11-02T15:20:18.129Z,1.60
2022-11-02T15:23:01.085Z,1.30
2022-11-02T15:25:36.512Z,1.50
2022-11-02T15:28:24.885Z,1.50
2022-11-02T15:30:59.499Z,1.10
2022-11-02T15:33:44.216Z,1.40
2022-11-02T15:36:22.152Z,1.67
2022-11-02T15:39:02.567Z,1.67
2022-11-02T15:42:05.065Z,1.55
2022-11-02T15:44:47.287Z,1.15
2022-11-02T15:47:49.696Z,1.60
2022-11-02T15:50:56.649Z,1.30
2022-11-02T15:54:01.558Z,1.98
2022-11-02T15:57:11.494Z,1.30
2022-11-02T16:00:24.899Z,1.10
2022-11-02T16:02:59.953Z,1.75
2022-11-02T16:05:54.960Z,2.42
2022-11-02T16:08:43.284Z,1.13
2022-11-02T16:11:23.756Z,1.40
2022-11-02T16:14:22.332Z,1.70
2022-11-02T16:16:59.224Z,1.60
2022-11-02T16:19:41.298Z,1.60
2022-11-02T16:22:26.224Z,2.13
2022-11-02T16:24:54.978Z,1.60
2022-11-02T16:27:28.396Z,1.10
2022-11-02T16:29:56.255Z,1.70
2022-11-02T16:32:41.453Z,1.65
2022-11-02T16:35:22.752Z,1.10
2022-11-02T16:37:54.171Z,1.42
2022-11-02T16:40:50.561Z,1.17
2022-11-02T16:43:57.395Z,1.17
2022-11-02T16:46:47.883Z,1.30
2022-11-02T16:49:28.619Z,1.77
2022-11-02T16:52:13.433Z,1.20
2022-11-02T16:55:31.286Z,1.77
2022-11-02T16:58:19.900Z,1.30
2022-11-02T17:01:50.714Z,2.40
2022-11-02T17:04:28.429Z,1.48
2022-11-02T17:07:24.636Z,1.48
2022-11-02T17:10:09.894Z,1.65
2022-11-02T17:13:17.229Z,2.15
2022-11-02T17:16:03.808Z,1.92
2022-11-02T17:18:49.625Z,1.63
2022-11-02T17:21:35.074Z,1.40
2022-11-02T17:24:40.376Z,1.98
2022-11-02T17:27:27.214Z,1.55
2022-11-02T17:29:55.267Z,1.67
2022-11-02T17:32:23.816Z,1.40
2022-11-02T17:34:56.712Z,1.38
2022-11-02T17:37:25.634Z,1.90
2022-11-02T17:39:56.259Z,1.92
2022-11-02T17:42:47.040Z,1.83
2022-11-02T17:45:24.729Z,1.20
2022-11-02T17:47:56.379Z,1.60
2022-11-02T17:50:25.776Z,1.23
2022-11-02T17:53:03.291Z,1.27
2022-11-02T17:55:40.311Z,1.15
2022-11-02T17:58:08.574Z,1.80
2022-11-02T18:00:39.450Z,1.80
2022-11-02T18:03:31.174Z,3.45
2022-11-02T18:06:05.290Z,3.50
2022-11-02T18:08:55.959Z,3.42
2022-11-02T18:11:31.817Z,2.08
2022-11-02T18:14:03.023Z,2.10
2022-11-02T18:16:35.352Z,1.98
2022-11-02T18:19:10.596Z,1.70
2022-11-02T18:21:43.102Z,2.58
2022-11-02T18:24:11.653Z,1.83
2022-11-02T18:26:42.755Z,1.95
2022-11-02T18:29:16.695Z,2.08
2022-11-02T18:34:33.157Z,2.05
2022-11-02T18:40:03.451Z,2.70
2022-11-02T18:42:48.034Z,1.38
2022-11-02T18:48:06.959Z,2.13
2022-11-02T18:50:35.319Z,2.30
2022-11-02T18:53:10.060Z,1.90
2022-11-02T18:55:43.978Z,1.98
2022-11-02T18:58:14.683Z,2.17
2022-11-02T19:01:11.279Z,2.28
2022-11-02T19:03:45.018Z,2.03
2022-11-02T19:06:34.756Z,2.20
2022-11-02T19:09:24.086Z,2.38
2022-11-02T19:12:04.495Z,2.80
2022-11-02T19:17:42.676Z,3.00
2022-11-02T19:20:22.989Z,4.22
2022-11-02T19:25:24.596Z,2.55
2022-11-02T19:27:51.902Z,2.53
2022-11-02T19:30:20.144Z,2.58
2022-11-02T19:32:47.330Z,2.67
2022-11-02T19:35:14.563Z,2.70
2022-11-02T19:37:41.804Z,2.13
2022-11-02T19:40:09.837Z,3.25
2022-11-02T19:42:37.173Z,3.55
2022-11-02T19:45:06.113Z,2.22
2022-11-02T19:47:34.442Z,1.90
2022-11-02T19:50:03.427Z,1.63
2022-11-02T19:52:30.850Z,2.88
2022-11-02T19:54:59.134Z,1.98
2022-11-02T19:57:30.715Z,2.42
2022-11-02T20:00:00.832Z,2.65
2022-11-02T20:02:28.190Z,2.42
2022-11-02T20:04:55.986Z,2.42
2022-11-02T20:07:24.959Z,3.35
2022-11-02T20:09:58.796Z,4.93
2022-11-02T20:12:27.135Z,4.07
2022-11-02T20:14:54.429Z,3.58
2022-11-02T20:17:51.888Z,3.53
2022-11-02T20:20:09.984Z,3.55
2022-11-02T20:22:38.840Z,4.18
2022-11-02T20:25:10.030Z,5.38
2022-11-02T20:27:41.640Z,5.18
2022-11-02T20:30:09.733Z,5.75
2022-11-02T20:32:37.457Z,4.40
2022-11-02T20:35:09.710Z,3.90
2022-11-02T20:37:42.955Z,3.63
2022-11-02T20:40:13.757Z,5.10
2022-11-02T20:42:41.447Z,5.78
2022-11-02T20:45:09.690Z,5.80
2022-11-02T20:47:37.385Z,6.13
2022-11-02T20:50:05.061Z,5.22
2022-11-02T20:52:33.932Z,5.45
2022-11-02T20:57:51.671Z,4.40
2022-11-02T21:00:25.240Z,4.60
2022-11-02T21:03:03.541Z,4.35
2022-11-02T21:05:42.315Z,4.70
2022-11-02T21:08:23.404Z,4.40
2022-11-02T21:14:51.523Z,4.30
2022-11-02T21:17:34.214Z,4.30
2022-11-02T21:23:10.183Z,4.75
2022-11-02T21:25:48.287Z,4.40
2022-11-02T21:28:30.036Z,4.43
2022-11-02T21:31:58.154Z,4.15
2022-11-02T21:34:28.589Z,4.50
2022-11-02T21:37:06.598Z,4.45
2022-11-02T21:39:35.399Z,3.72
2022-11-02T21:42:09.066Z,4.43
2022-11-02T21:44:55.086Z,5.03
2022-11-02T21:47:23.631Z,4.47
2022-11-02T21:50:00.050Z,4.68
2022-11-02T21:52:50.298Z,4.47
2022-11-02T21:55:44.194Z,4.13
2022-11-02T21:58:43.043Z,5.60
2022-11-02T22:01:48.122Z,4.32
2022-11-02T22:04:32.340Z,4.32
2022-11-02T22:07:15.601Z,4.85
2022-11-02T22:10:10.911Z,3.85
2022-11-02T22:13:01.271Z,5.00
2022-11-02T22:15:37.393Z,4.28
2022-11-02T22:18:21.079Z,4.10
2022-11-02T22:21:08.294Z,4.55
2022-11-02T22:24:00.164Z,3.97
2022-11-02T22:26:46.997Z,3.95
2022-11-02T22:29:23.986Z,4.32
2022-11-02T22:32:10.181Z,3.78
2022-11-02T22:35:02.866Z,5.00
2022-11-02T22:38:16.248Z,4.05
2022-11-02T22:41:02.683Z,4.38
2022-11-02T22:44:18.476Z,4.32
2022-11-02T22:47:00.962Z,5.10
2022-11-02T22:52:31.407Z,4.43
2022-11-02T22:55:27.012Z,4.65
2022-11-02T22:58:07.161Z,4.40
2022-11-02T23:00:47.606Z,4.47
2022-11-02T23:03:31.788Z,4.93
2022-11-02T23:06:15.595Z,4.95
2022-11-02T23:08:56.707Z,4.75
2022-11-02T23:11:42.297Z,4.53
2022-11-02T23:14:13.415Z,4.30
2022-11-02T23:17:02.372Z,4.72
2022-11-02T23:19:30.339Z,5.00
2022-11-02T23:22:38.861Z,4.88
2022-11-02T23:25:22.640Z,4.90
2022-11-02T23:31:03.221Z,5.95
2022-11-02T23:33:33.755Z,4.25
2022-11-02T23:36:16.155Z,4.60
2022-11-02T23:39:04.500Z,3.80
2022-11-02T23:41:35.098Z,4.80
2022-11-02T23:44:12.420Z,5.55
2022-11-02T23:46:44.792Z,3.53
2022-11-02T23:49:13.904Z,3.67
2022-11-02T23:52:02.726Z,3.42
2022-11-02T23:54:49.479Z,4.38
2022-11-02T23:57:21.414Z,4.18
2022-11-02T23:59:48.981Z,4.18
